Time;durP1;ratioP1;P1;durP2;ratioP2;P2;SDS_P1;SDS_P2;PMS_P1;PMS_P2;Temp;Humidity;BMP_temperature;BMP_pressure;BME280_temperature;BME280_humidity;BME280_pressure;Samples;Min_cycle;Max_cycle;Signal;HPM_P1;HPM_P2
2022/07/26 00:01:03;;;;;;;19.23;11.90;;;;;;;;;;10606178;27;20113;-73
2022/07/26 00:06:03;;;;;;;19.90;11.77;;;;;;;;;;10605651;27;20026;-73
2022/07/26 00:11:04;;;;;;;16.03;10.30;;;;;;;;;;10605830;27;20019;-73
2022/07/26 00:16:04;;;;;;;17.20;11.43;;;;;;;;;;10605468;27;20051;-73
2022/07/26 00:21:05;;;;;;;19.85;11.77;;;;;;;;;;10623483;27;20065;-73
2022/07/26 00:26:05;;;;;;;17.63;11.20;;;;;;;;;;10604934;27;20030;-74
2022/07/26 00:31:05;;;;;;;15.40;11.43;;;;;;;;;;10604934;27;20068;-73
2022/07/26 00:36:06;;;;;;;15.60;10.90;;;;;;;;;;10604621;27;20057;-73
2022/07/26 00:41:08;;;;;;;17.33;11.40;;;;;;;;;;10604633;27;20311;-73
2022/07/26 00:46:08;;;;;;;15.93;11.30;;;;;;;;;;10603205;27;20492;-73
2022/07/26 00:51:08;;;;;;;17.80;10.95;;;;;;;;;;10603935;27;20015;-74
2022/07/26 00:56:08;;;;;;;20.45;11.95;;;;;;;;;;10622511;27;20110;-74
2022/07/26 01:01:09;;;;;;;16.93;11.37;;;;;;;;;;10622458;27;20023;-74
2022/07/26 01:06:10;;;;;;;19.13;13.43;;;;;;;;;;10603636;27;20162;-75
2022/07/26 01:11:10;;;;;;;23.52;13.35;;;;;;;;;;10603461;27;20018;-74
2022/07/26 01:16:11;;;;;;;23.42;11.80;;;;;;;;;;10603458;27;20023;-75
2022/07/26 01:21:11;;;;;;;18.58;12.20;;;;;;;;;;10603091;27;20118;-74
2022/07/26 01:26:11;;;;;;;18.95;12.85;;;;;;;;;;10602927;27;20020;-74
2022/07/26 01:31:11;;;;;;;19.92;13.65;;;;;;;;;;10602920;27;20098;-75
2022/07/26 01:36:12;;;;;;;18.63;12.63;;;;;;;;;;10602692;27;20056;-74
2022/07/26 01:41:12;;;;;;;19.33;12.68;;;;;;;;;;10621088;27;20058;-74
2022/07/26 01:46:13;;;;;;;14.93;11.23;;;;;;;;;;10602154;27;20572;-74
2022/07/26 01:51:13;;;;;;;19.73;12.13;;;;;;;;;;10602354;27;20106;-74
2022/07/26 01:56:13;;;;;;;18.02;12.13;;;;;;;;;;10601963;27;20426;-74
2022/07/26 02:01:13;;;;;;;22.43;12.77;;;;;;;;;;10620446;28;20031;-74
2022/07/26 02:06:14;;;;;;;18.73;12.23;;;;;;;;;;10602016;28;20026;-74
2022/07/26 02:11:14;;;;;;;19.23;13.45;;;;;;;;;;10601978;28;20019;-75
2022/07/26 02:16:14;;;;;;;25.25;13.57;;;;;;;;;;10601745;28;20109;-74
2022/07/26 02:21:14;;;;;;;20.23;12.80;;;;;;;;;;10601869;28;20038;-74
2022/07/26 02:26:15;;;;;;;17.75;13.27;;;;;;;;;;10601694;28;20020;-75
2022/07/26 02:31:15;;;;;;;23.00;13.70;;;;;;;;;;10620013;28;20031;-75
2022/07/26 02:36:15;;;;;;;23.92;15.80;;;;;;;;;;10601270;28;20083;-74
2022/07/26 02:41:15;;;;;;;20.33;13.75;;;;;;;;;;10619673;28;20034;-74
2022/07/26 02:46:16;;;;;;;20.20;13.97;;;;;;;;;;10584138;28;20058;-74
2022/07/26 02:51:16;;;;;;;31.60;14.70;;;;;;;;;;10619473;28;20035;-74
2022/07/26 02:56:16;;;;;;;19.63;13.67;;;;;;;;;;10601052;28;20015;-74
2022/07/26 03:01:16;;;;;;;21.90;13.18;;;;;;;;;;10600881;28;20026;-74
2022/07/26 03:06:17;;;;;;;24.37;14.53;;;;;;;;;;10619263;27;20030;-74
2022/07/26 03:11:17;;;;;;;20.23;13.60;;;;;;;;;;10626203;27;20408;-76
2022/07/26 03:16:18;;;;;;;19.92;13.35;;;;;;;;;;10626518;27;20038;-74
2022/07/26 03:21:18;;;;;;;27.87;13.80;;;;;;;;;;10626242;27;20164;-74
2022/07/26 03:26:19;;;;;;;23.30;14.40;;;;;;;;;;10626010;27;20030;-75
2022/07/26 03:31:19;;;;;;;21.08;13.23;;;;;;;;;;10607680;27;20469;-74
2022/07/26 03:36:19;;;;;;;18.63;13.25;;;;;;;;;;10625615;27;20031;-74
2022/07/26 03:41:20;;;;;;;19.25;13.05;;;;;;;;;;10606933;27;20027;-74
2022/07/26 03:46:20;;;;;;;19.58;13.60;;;;;;;;;;10581139;28;20051;-74
2022/07/26 03:51:20;;;;;;;19.77;13.00;;;;;;;;;;10581198;28;20122;-74
2022/07/26 03:56:33;;;;;;;20.70;13.45;;;;;;;;;;10580856;28;20028;-74
2022/07/26 04:01:35;;;;;;;19.02;12.90;;;;;;;;;;10580790;28;20098;-74
2022/07/26 04:06:35;;;;;;;22.83;13.32;;;;;;;;;;10580386;28;20035;-74
2022/07/26 04:11:36;;;;;;;17.35;12.98;;;;;;;;;;10580341;28;20024;-74
2022/07/26 04:16:36;;;;;;;21.83;13.85;;;;;;;;;;10580728;28;20029;-75
2022/07/26 04:21:37;;;;;;;18.52;13.07;;;;;;;;;;10579712;28;20111;-74
2022/07/26 04:26:37;;;;;;;26.85;15.32;;;;;;;;;;10579580;28;20027;-74
2022/07/26 04:31:37;;;;;;;21.50;13.10;;;;;;;;;;10579509;27;20127;-75
2022/07/26 04:36:37;;;;;;;20.98;11.93;;;;;;;;;;10579053;28;20123;-75
2022/07/26 04:41:38;;;;;;;17.80;12.93;;;;;;;;;;10578825;28;20027;-74
2022/07/26 04:46:38;;;;;;;16.77;11.10;;;;;;;;;;10578389;28;20040;-74
2022/07/26 04:51:38;;;;;;;21.60;12.32;;;;;;;;;;10578544;28;20060;-75
2022/07/26 04:56:38;;;;;;;18.85;11.88;;;;;;;;;;10578905;28;20019;-74
2022/07/26 05:01:39;;;;;;;19.13;11.57;;;;;;;;;;10579473;28;20036;-75
2022/07/26 05:06:39;;;;;;;20.85;11.70;;;;;;;;;;10577620;28;20027;-74
2022/07/26 05:11:39;;;;;;;17.60;10.65;;;;;;;;;;10577350;28;20193;-74
2022/07/26 05:16:39;;;;;;;16.95;10.77;;;;;;;;;;10577123;28;20502;-75
2022/07/26 05:21:40;;;;;;;16.15;11.43;;;;;;;;;;10577080;28;20045;-75
2022/07/26 05:26:40;;;;;;;13.68;9.98;;;;;;;;;;10577066;28;20405;-74
2022/07/26 05:31:40;;;;;;;19.70;10.25;;;;;;;;;;10577075;28;20016;-74
2022/07/26 05:36:40;;;;;;;15.80;9.95;;;;;;;;;;10578132;28;20055;-74
2022/07/26 05:41:41;;;;;;;13.77;9.55;;;;;;;;;;10576514;28;20023;-74
2022/07/26 05:46:41;;;;;;;17.38;9.02;;;;;;;;;;10575995;28;20124;-74
2022/07/26 05:51:41;;;;;;;16.73;9.82;;;;;;;;;;10576340;28;20412;-74
2022/07/26 05:56:41;;;;;;;13.18;9.10;;;;;;;;;;10576040;28;20035;-74
2022/07/26 06:01:42;;;;;;;13.50;8.73;;;;;;;;;;10575310;28;20111;-74
2022/07/26 06:06:42;;;;;;;13.03;9.27;;;;;;;;;;10575909;28;20549;-73
2022/07/26 06:11:42;;;;;;;11.02;7.88;;;;;;;;;;10575798;28;20490;-73
2022/07/26 06:16:43;;;;;;;12.20;7.97;;;;;;;;;;10575649;28;20027;-73
2022/07/26 06:21:44;;;;;;;9.25;7.25;;;;;;;;;;10575500;28;20050;-74
2022/07/26 06:26:45;;;;;;;15.93;7.38;;;;;;;;;;10575452;28;20051;-73
2022/07/26 06:31:46;;;;;;;24.65;11.15;;;;;;;;;;10575205;28;20057;-73
2022/07/26 06:36:46;;;;;;;14.20;9.23;;;;;;;;;;10575273;28;20031;-74
2022/07/26 06:41:46;;;;;;;16.40;8.32;;;;;;;;;;10575616;28;20165;-74
2022/07/26 06:46:47;;;;;;;13.45;8.52;;;;;;;;;;10583017;28;20039;-74
2022/07/26 06:51:47;;;;;;;16.17;9.82;;;;;;;;;;10583597;28;20477;-74
2022/07/26 06:56:47;;;;;;;14.27;8.95;;;;;;;;;;10583077;28;20106;-74
2022/07/26 07:01:48;;;;;;;16.75;8.65;;;;;;;;;;10582786;28;20024;-75
2022/07/26 07:06:48;;;;;;;13.70;7.88;;;;;;;;;;10582773;28;20481;-74
2022/07/26 07:11:48;;;;;;;17.77;8.45;;;;;;;;;;10582514;28;20028;-73
2022/07/26 07:16:48;;;;;;;13.80;8.10;;;;;;;;;;10582376;28;20020;-75
2022/07/26 07:21:49;;;;;;;11.20;7.20;;;;;;;;;;10583329;28;20341;-74
2022/07/26 07:26:49;;;;;;;15.00;7.90;;;;;;;;;;10583287;28;20565;-74
2022/07/26 07:31:50;;;;;;;11.57;8.18;;;;;;;;;;10581650;28;20007;-74
2022/07/26 07:36:51;;;;;;;11.00;7.63;;;;;;;;;;10564810;28;20011;-74
2022/07/26 07:41:51;;;;;;;13.85;7.72;;;;;;;;;;10581735;27;20782;-75
2022/07/26 07:46:51;;;;;;;11.18;7.45;;;;;;;;;;10605952;27;20028;-75
2022/07/26 07:51:52;;;;;;;10.82;7.80;;;;;;;;;;10624748;27;20025;-74
2022/07/26 07:56:55;;;;;;;14.30;6.80;;;;;;;;;;10624375;27;20071;-74
2022/07/26 08:01:55;;;;;;;13.27;7.85;;;;;;;;;;10589264;27;20046;-74
2022/07/26 08:06:55;;;;;;;12.10;7.18;;;;;;;;;;10605646;27;20057;-74
2022/07/26 08:11:55;;;;;;;12.30;6.78;;;;;;;;;;10623828;27;20018;-73
2022/07/26 08:16:56;;;;;;;11.02;7.22;;;;;;;;;;10623632;27;20412;-74
2022/07/26 08:21:56;;;;;;;15.77;6.67;;;;;;;;;;10605127;27;20025;-74
2022/07/26 08:26:56;;;;;;;11.70;6.35;;;;;;;;;;10604513;27;20168;-74
2022/07/26 08:31:56;;;;;;;11.65;6.28;;;;;;;;;;10604692;27;20015;-74
2022/07/26 08:36:57;;;;;;;7.47;5.35;;;;;;;;;;10604776;27;20023;-74
2022/07/26 08:41:57;;;;;;;9.27;6.40;;;;;;;;;;10604154;27;20068;-73
2022/07/26 08:46:57;;;;;;;7.33;5.60;;;;;;;;;;10603922;27;20034;-74
2022/07/26 08:51:58;;;;;;;8.05;6.10;;;;;;;;;;10622468;27;20019;-74
2022/07/26 08:56:58;;;;;;;14.70;7.00;;;;;;;;;;10603985;27;20030;-74
2022/07/26 09:02:00;;;;;;;11.63;6.53;;;;;;;;;;10603560;27;20510;-74
2022/07/26 09:07:00;;;;;;;10.45;6.68;;;;;;;;;;10602574;27;20023;-74
2022/07/26 09:12:15;;;;;;;9.50;6.67;;;;;;;;;;10621450;27;20473;-73
2022/07/26 09:17:17;;;;;;;13.30;6.97;;;;;;;;;;10602783;27;20023;-74
2022/07/26 09:22:17;;;;;;;10.30;6.40;;;;;;;;;;10602630;27;20023;-74
2022/07/26 09:27:17;;;;;;;12.60;6.05;;;;;;;;;;10602278;27;20500;-73
2022/07/26 09:32:22;;;;;;;10.35;7.00;;;;;;;;;;10602340;27;20019;-73
2022/07/26 09:37:32;;;;;;;8.57;6.07;;;;;;;;;;10632306;27;20040;-74
2022/07/26 09:42:33;;;;;;;9.10;5.72;;;;;;;;;;10601988;27;20043;-73
2022/07/26 09:47:33;;;;;;;10.02;5.60;;;;;;;;;;10585173;27;20027;-74
2022/07/26 09:52:34;;;;;;;10.15;5.53;;;;;;;;;;10620505;27;20019;-74
2022/07/26 09:57:34;;;;;;;8.52;5.47;;;;;;;;;;10601567;27;20016;-74
2022/07/26 10:02:34;;;;;;;7.07;5.43;;;;;;;;;;10601558;28;20107;-75
2022/07/26 10:07:35;;;;;;;6.78;4.70;;;;;;;;;;10601530;28;20027;-73
2022/07/26 10:12:36;;;;;;;9.00;5.40;;;;;;;;;;10601412;28;20110;-73
2022/07/26 10:17:36;;;;;;;5.60;4.97;;;;;;;;;;10605164;27;20106;-74
2022/07/26 10:22:39;;;;;;;9.90;5.38;;;;;;;;;;10628504;27;20378;-74
2022/07/26 10:27:40;;;;;;;6.47;5.43;;;;;;;;;;10628247;27;20019;-74
2022/07/26 10:32:55;;;;;;;6.53;4.53;;;;;;;;;;10609522;27;20015;-73
2022/07/26 10:37:55;;;;;;;;;;;;;;;;;;10609934;27;20025;-74
2022/07/26 10:43:14;;;;;;;6.72;4.57;;;;;;;;;;10608891;27;20014;-74
2022/07/26 10:48:17;;;;;;;12.23;5.47;;;;;;;;;;10608951;27;20027;-74
2022/07/26 10:53:24;;;;;;;7.55;5.50;;;;;;;;;;10608883;27;20011;-73
2022/07/26 10:58:25;;;;;;;6.65;5.93;;;;;;;;;;10608244;27;20027;-73
2022/07/26 11:03:39;;;;;;;5.57;4.97;;;;;;;;;;10607984;27;20385;-73
2022/07/26 11:08:40;;;;;;;6.97;4.82;;;;;;;;;;10607978;27;20030;-73
2022/07/26 11:13:40;;;;;;;9.45;5.35;;;;;;;;;;10607679;27;20476;-72
2022/07/26 11:18:41;;;;;;;7.35;5.82;;;;;;;;;;10607543;27;20023;-74
2022/07/26 11:23:43;;;;;;;8.53;6.80;;;;;;;;;;10625911;27;20084;-73
2022/07/26 11:28:43;;;;;;;7.75;6.95;;;;;;;;;;10624927;27;20392;-73
2022/07/26 11:33:47;;;;;;;9.05;7.75;;;;;;;;;;10607481;27;20034;-73
2022/07/26 11:38:47;;;;;;;10.25;7.00;;;;;;;;;;10606844;27;20027;-73
2022/07/26 11:43:48;;;;;;;12.27;6.40;;;;;;;;;;10624726;27;20504;-73
2022/07/26 11:48:49;;;;;;;10.68;7.05;;;;;;;;;;10624598;27;20015;-73
2022/07/26 11:53:50;;;;;;;8.80;7.07;;;;;;;;;;10606302;27;20028;-74
2022/07/26 11:58:52;;;;;;;10.57;7.10;;;;;;;;;;10606184;27;20030;-74
2022/07/26 12:03:52;;;;;;;11.15;6.47;;;;;;;;;;10605823;27;20117;-74
2022/07/26 12:08:57;;;;;;;12.02;7.88;;;;;;;;;;10605653;27;20163;-74
2022/07/26 12:13:59;;;;;;;11.93;7.20;;;;;;;;;;10624120;27;20107;-74
2022/07/26 12:18:59;;;;;;;9.60;7.13;;;;;;;;;;10605297;27;20030;-75
2022/07/26 12:23:59;;;;;;;10.33;6.83;;;;;;;;;;10605086;27;20019;-75
2022/07/26 12:34:19;;;;;;;7.53;6.47;;;;;;;;;;10623351;27;20031;-75
2022/07/26 12:39:22;;;;;;;6.93;5.72;;;;;;;;;;10604185;27;20072;-74
2022/07/26 12:44:23;;;;;;;10.63;6.05;;;;;;;;;;10603865;27;20043;-74
2022/07/26 12:49:23;;;;;;;8.52;5.95;;;;;;;;;;10603841;27;20019;-75
2022/07/26 12:54:23;;;;;;;11.23;6.55;;;;;;;;;;10603930;27;20034;-74
2022/07/26 12:59:23;;;;;;;8.25;5.63;;;;;;;;;;10622499;27;20079;-74
2022/07/26 13:04:24;;;;;;;8.57;5.40;;;;;;;;;;10621666;27;20038;-73
2022/07/26 13:09:24;;;;;;;7.03;5.70;;;;;;;;;;10603310;27;20023;-73
2022/07/26 13:14:24;;;;;;;7.50;5.95;;;;;;;;;;10621585;27;20028;-74
2022/07/26 13:19:25;;;;;;;14.97;6.63;;;;;;;;;;10602672;27;20054;-74
2022/07/26 13:24:26;;;;;;;12.43;7.47;;;;;;;;;;10602639;27;20080;-75
2022/07/26 13:29:26;;;;;;;9.73;7.25;;;;;;;;;;10602437;27;20287;-75
2022/07/26 13:34:28;;;;;;;9.67;7.23;;;;;;;;;;10602155;27;20110;-74
2022/07/26 13:39:28;;;;;;;10.18;6.80;;;;;;;;;;10602012;27;20267;-74
2022/07/26 13:44:29;;;;;;;10.88;6.28;;;;;;;;;;10601476;27;20428;-75
2022/07/26 13:49:29;;;;;;;9.77;6.22;;;;;;;;;;10601603;27;20524;-74
2022/07/26 13:54:31;;;;;;;9.73;6.18;;;;;;;;;;10600990;27;20046;-73
2022/07/26 13:59:31;;;;;;;10.68;7.13;;;;;;;;;;10601343;28;20023;-74
2022/07/26 14:04:31;;;;;;;9.90;7.07;;;;;;;;;;10619650;28;20031;-75
2022/07/26 14:09:31;;;;;;;10.05;6.80;;;;;;;;;;10619527;28;20015;-74
2022/07/26 14:14:32;;;;;;;14.30;7.32;;;;;;;;;;10601082;28;20023;-74
2022/07/26 14:19:32;;;;;;;15.65;7.07;;;;;;;;;;10601580;28;20503;-73
2022/07/26 14:24:32;;;;;;;9.30;7.07;;;;;;;;;;10600820;28;20468;-73
2022/07/26 14:29:32;;;;;;;7.93;6.43;;;;;;;;;;10600610;28;20022;-74
2022/07/26 14:34:33;;;;;;;19.35;7.63;;;;;;;;;;10619143;28;20023;-74
2022/07/26 14:39:33;;;;;;;11.15;7.20;;;;;;;;;;10600343;28;20031;-75
2022/07/26 14:44:33;;;;;;;9.00;6.78;;;;;;;;;;10600157;28;20043;-74
2022/07/26 14:49:33;;;;;;;12.05;7.63;;;;;;;;;;10600387;28;20054;-74
2022/07/26 14:54:34;;;;;;;12.88;7.10;;;;;;;;;;10600537;28;20075;-73
2022/07/26 14:59:34;;;;;;;10.48;6.95;;;;;;;;;;10600227;28;20023;-73
2022/07/26 15:04:35;;;;;;;13.40;7.63;;;;;;;;;;10602842;27;20023;-75
2022/07/26 15:09:35;;;;;;;10.82;8.02;;;;;;;;;;10607449;27;20114;-74
2022/07/26 15:14:36;;;;;;;12.25;7.82;;;;;;;;;;10607551;27;20456;-74
2022/07/26 15:19:36;;;;;;;14.60;7.60;;;;;;;;;;10607281;27;20415;-75
2022/07/26 15:24:36;;;;;;;12.40;8.60;;;;;;;;;;10606933;27;20035;-75
2022/07/26 15:29:36;;;;;;;9.52;7.63;;;;;;;;;;10607072;27;20027;-75
2022/07/26 15:34:37;;;;;;;9.87;7.87;;;;;;;;;;10589919;27;20023;-74
2022/07/26 15:39:37;;;;;;;11.98;7.18;;;;;;;;;;10625082;27;20118;-75
2022/07/26 15:44:37;;;;;;;11.65;7.32;;;;;;;;;;10624616;27;20047;-75
2022/07/26 15:49:38;;;;;;;10.40;7.40;;;;;;;;;;10606256;27;20024;-75
2022/07/26 15:54:40;;;;;;;14.43;7.95;;;;;;;;;;10606214;27;20034;-73
2022/07/26 15:59:40;;;;;;;12.80;8.77;;;;;;;;;;10624260;27;20060;-73
2022/07/26 16:04:40;;;;;;;8.23;7.13;;;;;;;;;;10623889;27;20058;-72
2022/07/26 16:09:41;;;;;;;10.30;7.97;;;;;;;;;;10605466;27;20027;-73
2022/07/26 16:14:41;;;;;;;12.25;7.85;;;;;;;;;;10605023;27;20086;-75
2022/07/26 16:19:41;;;;;;;10.63;7.47;;;;;;;;;;10605295;27;20022;-74
2022/07/26 16:24:41;;;;;;;11.65;7.57;;;;;;;;;;10604606;27;20473;-74
2022/07/26 16:29:42;;;;;;;11.40;8.15;;;;;;;;;;10604985;27;20026;-72
2022/07/26 16:34:42;;;;;;;12.57;7.40;;;;;;;;;;10604629;27;20440;-75
2022/07/26 16:39:42;;;;;;;10.05;7.57;;;;;;;;;;10604585;27;20023;-76
2022/07/26 16:44:42;;;;;;;13.85;7.30;;;;;;;;;;10595772;27;20046;-74
2022/07/26 16:49:43;;;;;;;16.23;7.68;;;;;;;;;;10604148;27;20023;-73
2022/07/26 16:54:43;;;;;;;10.40;7.35;;;;;;;;;;10603726;27;20027;-73
2022/07/26 16:59:43;;;;;;;16.52;8.10;;;;;;;;;;10603523;27;20034;-74
2022/07/26 17:04:44;;;;;;;10.75;7.47;;;;;;;;;;10603678;27;20034;-73
2022/07/26 17:09:44;;;;;;;15.63;9.63;;;;;;;;;;10621637;27;20113;-74
2022/07/26 17:14:44;;;;;;;16.73;9.63;;;;;;;;;;10603043;27;20050;-73
2022/07/26 17:19:44;;;;;;;12.63;8.27;;;;;;;;;;10603330;27;20038;-74
2022/07/26 17:24:45;;;;;;;11.02;8.35;;;;;;;;;;10602436;27;20070;-75
2022/07/26 17:29:45;;;;;;;12.40;8.15;;;;;;;;;;10620348;27;20015;-73
2022/07/26 17:34:46;;;;;;;15.88;8.70;;;;;;;;;;10602480;27;20083;-75
2022/07/26 17:39:46;;;;;;;23.30;9.00;;;;;;;;;;10602314;27;20142;-74
2022/07/26 17:44:46;;;;;;;11.38;9.15;;;;;;;;;;10611992;27;20057;-73
2022/07/26 17:49:46;;;;;;;11.52;8.68;;;;;;;;;;10601835;27;20023;-75
2022/07/26 17:54:48;;;;;;;11.07;8.50;;;;;;;;;;10602454;27;20067;-74
2022/07/26 17:59:48;;;;;;;14.35;8.20;;;;;;;;;;10620276;27;20065;-75
2022/07/26 18:04:48;;;;;;;11.23;8.27;;;;;;;;;;10601407;28;20450;-73
2022/07/26 18:09:49;;;;;;;15.80;9.05;;;;;;;;;;10585008;28;20482;-75
2022/07/26 18:14:49;;;;;;;11.05;8.73;;;;;;;;;;10601406;28;20022;-73
2022/07/26 18:19:49;;;;;;;14.95;9.40;;;;;;;;;;10601081;28;20473;-73
2022/07/26 18:24:49;;;;;;;15.50;8.80;;;;;;;;;;10583878;28;20057;-74
2022/07/26 18:29:50;;;;;;;17.37;10.00;;;;;;;;;;10584343;28;20075;-74
2022/07/26 18:34:50;;;;;;;16.17;9.98;;;;;;;;;;10601207;28;20148;-74
2022/07/26 18:39:50;;;;;;;22.60;9.37;;;;;;;;;;10606327;27;20015;-74
2022/07/26 18:44:51;;;;;;;15.50;9.48;;;;;;;;;;10609142;27;20508;-75
2022/07/26 18:49:51;;;;;;;22.33;9.88;;;;;;;;;;10608959;27;20391;-74
2022/07/26 18:54:52;;;;;;;14.15;9.48;;;;;;;;;;10591971;27;20524;-74
2022/07/26 18:59:52;;;;;;;13.98;9.02;;;;;;;;;;10608757;27;20092;-74
2022/07/26 19:04:52;;;;;;;11.88;9.20;;;;;;;;;;10608324;27;20499;-74
2022/07/26 19:09:52;;;;;;;13.63;9.00;;;;;;;;;;10608267;27;20040;-74
2022/07/26 19:14:53;;;;;;;12.85;9.43;;;;;;;;;;10608331;27;20026;-74
2022/07/26 19:19:54;;;;;;;15.00;9.67;;;;;;;;;;10608017;27;20027;-74
2022/07/26 19:24:54;;;;;;;14.73;10.30;;;;;;;;;;10591123;27;20023;-74
2022/07/26 19:29:55;;;;;;;17.45;9.75;;;;;;;;;;10607346;27;20027;-74
2022/07/26 19:34:55;;;;;;;17.23;10.88;;;;;;;;;;10607515;27;20156;-75
2022/07/26 19:39:59;;;;;;;14.70;10.52;;;;;;;;;;10606917;27;20544;-75
2022/07/26 19:44:59;;;;;;;16.70;9.02;;;;;;;;;;10606645;27;20044;-74
2022/07/26 19:49:59;;;;;;;13.50;9.13;;;;;;;;;;10606034;27;20019;-74
2022/07/26 19:55:00;;;;;;;13.40;9.47;;;;;;;;;;10606569;27;20035;-74
2022/07/26 20:00:02;;;;;;;14.23;9.30;;;;;;;;;;10606415;27;20019;-74
2022/07/26 20:05:02;;;;;;;14.32;9.48;;;;;;;;;;10606166;27;20023;-74
2022/07/26 20:10:03;;;;;;;13.93;9.63;;;;;;;;;;10606150;27;20492;-74
2022/07/26 20:15:04;;;;;;;12.27;9.25;;;;;;;;;;10605760;27;20469;-75
2022/07/26 20:20:06;;;;;;;13.52;9.80;;;;;;;;;;10605587;27;20027;-75
2022/07/26 20:25:06;;;;;;;12.65;9.75;;;;;;;;;;10605172;27;20023;-74
2022/07/26 20:30:07;;;;;;;14.45;9.07;;;;;;;;;;10623332;27;20023;-74
2022/07/26 20:35:07;;;;;;;11.77;8.38;;;;;;;;;;10604816;27;20107;-74
2022/07/26 20:40:09;;;;;;;17.17;9.30;;;;;;;;;;10587565;27;20023;-74
2022/07/26 20:45:09;;;;;;;18.27;8.57;;;;;;;;;;10599802;27;20423;-74
2022/07/26 20:50:10;;;;;;;15.98;8.98;;;;;;;;;;10604463;27;20023;-74
2022/07/26 20:55:10;;;;;;;12.45;8.95;;;;;;;;;;10604089;27;20019;-73
2022/07/26 21:00:11;;;;;;;14.57;9.05;;;;;;;;;;10603419;27;20026;-74
2022/07/26 21:05:12;;;;;;;12.65;8.77;;;;;;;;;;10603232;27;20023;-74
2022/07/26 21:10:12;;;;;;;13.50;8.50;;;;;;;;;;10603554;27;20022;-74
2022/07/26 21:15:13;;;;;;;11.30;8.23;;;;;;;;;;10603403;27;20080;-74
2022/07/26 21:20:13;;;;;;;13.77;9.30;;;;;;;;;;10603478;27;20481;-74
2022/07/26 21:25:13;;;;;;;14.63;9.07;;;;;;;;;;10621391;27;20473;-74
2022/07/26 21:30:13;;;;;;;19.20;9.07;;;;;;;;;;10602848;27;20019;-73
2022/07/26 21:35:14;;;;;;;14.02;10.13;;;;;;;;;;10602964;27;20033;-73
2022/07/26 21:40:14;;;;;;;12.23;8.73;;;;;;;;;;10585690;27;20023;-73
2022/07/26 21:45:14;;;;;;;13.38;9.55;;;;;;;;;;10620821;27;20092;-73
2022/07/26 21:50:14;;;;;;;14.80;10.53;;;;;;;;;;10620824;27;20074;-74
2022/07/26 21:55:15;;;;;;;14.77;10.45;;;;;;;;;;10602522;27;20409;-74
2022/07/26 22:00:16;;;;;;;14.05;10.27;;;;;;;;;;10602337;27;20481;-73
2022/07/26 22:05:36;;;;;;;13.48;10.13;;;;;;;;;;10601992;28;20023;-73
2022/07/26 22:10:38;;;;;;;18.52;10.48;;;;;;;;;;10602090;28;20057;-73
2022/07/26 22:15:38;;;;;;;14.65;9.50;;;;;;;;;;10609118;27;20450;-73
2022/07/26 22:20:38;;;;;;;16.57;10.20;;;;;;;;;;10610720;27;20022;-73
2022/07/26 22:25:39;;;;;;;13.60;9.87;;;;;;;;;;10610367;27;20273;-73
2022/07/26 22:30:40;;;;;;;13.95;10.30;;;;;;;;;;10628739;27;20015;-73
2022/07/26 22:35:40;;;;;;;19.00;10.25;;;;;;;;;;10610172;27;20106;-74
2022/07/26 22:40:41;;;;;;;16.60;10.15;;;;;;;;;;10609949;27;20106;-73
2022/07/26 22:45:41;;;;;;;14.38;10.18;;;;;;;;;;10609519;27;20036;-73
2022/07/26 22:50:41;;;;;;;17.67;10.52;;;;;;;;;;10609411;27;20109;-73
2022/07/26 22:55:41;;;;;;;16.93;10.33;;;;;;;;;;10627612;27;20019;-73
2022/07/26 23:00:42;;;;;;;14.38;10.35;;;;;;;;;;10609201;27;20106;-73
2022/07/26 23:05:42;;;;;;;17.23;10.40;;;;;;;;;;10608775;27;20469;-73
2022/07/26 23:10:42;;;;;;;17.25;10.27;;;;;;;;;;10608525;27;20026;-75
2022/07/26 23:15:42;;;;;;;18.83;10.67;;;;;;;;;;10627098;27;20025;-73
2022/07/26 23:20:43;;;;;;;14.80;9.75;;;;;;;;;;10608320;27;20027;-73
2022/07/26 23:25:43;;;;;;;16.35;9.88;;;;;;;;;;10606801;27;20025;-75
2022/07/26 23:30:43;;;;;;;17.10;10.52;;;;;;;;;;10607810;27;20047;-73
2022/07/26 23:35:43;;;;;;;15.95;10.45;;;;;;;;;;10607813;27;20019;-73
2022/07/26 23:40:44;;;;;;;15.80;10.95;;;;;;;;;;10608021;27;20098;-73
2022/07/26 23:45:44;;;;;;;17.15;10.68;;;;;;;;;;10581817;28;20425;-73
2022/07/26 23:50:44;;;;;;;22.45;10.52;;;;;;;;;;10582211;28;20084;-73
2022/07/26 23:55:44;;;;;;;19.08;10.90;;;;;;;;;;10582734;28;20035;-73
